createdAt,value
2018-09-09T00:02:17.079Z,58.27
2018-09-09T00:04:45.796Z,58.09
2018-09-09T00:07:15.161Z,58.66
2018-09-09T00:09:47.736Z,58.50
2018-09-09T00:12:16.872Z,58.67
2018-09-09T00:14:45.466Z,58.96
2018-09-09T00:17:14.166Z,58.99
2018-09-09T00:19:42.883Z,59.24
2018-09-09T00:22:11.539Z,59.90
2018-09-09T00:24:40.185Z,60.49
2018-09-09T00:27:08.860Z,60.95
2018-09-09T00:29:37.606Z,60.14
2018-09-09T00:32:06.289Z,60.21
2018-09-09T00:34:34.935Z,60.32
2018-09-09T00:37:03.614Z,60.57
2018-09-09T00:39:32.276Z,60.39
2018-09-09T00:42:00.940Z,60.84
2018-09-09T00:44:29.625Z,60.95
2018-09-09T00:46:58.295Z,60.92
2018-09-09T00:49:32.185Z,60.78
2018-09-09T00:52:05.990Z,60.45
2018-09-09T00:54:34.722Z,60.32
2018-09-09T00:57:03.419Z,61.15
2018-09-09T00:59:32.088Z,59.68
2018-09-09T01:02:00.740Z,61.12
2018-09-09T01:04:29.451Z,61.15
2018-09-09T01:06:58.160Z,60.93
2018-09-09T01:09:33.571Z,61.25
2018-09-09T01:12:03.631Z,61.01
2018-09-09T01:14:32.733Z,61.27
2018-09-09T01:17:01.398Z,61.25
2018-09-09T01:19:30.031Z,61.61
2018-09-09T01:21:58.694Z,61.23
2018-09-09T01:24:27.430Z,60.56
2018-09-09T01:26:56.063Z,60.46
2018-09-09T01:29:24.785Z,60.65
2018-09-09T01:31:53.710Z,61.59
2018-09-09T01:34:22.469Z,62.86
2018-09-09T01:36:51.156Z,61.35
2018-09-09T01:39:19.833Z,62.79
2018-09-09T01:41:48.531Z,62.59
2018-09-09T01:44:17.168Z,61.08
2018-09-09T01:46:45.800Z,61.36
2018-09-09T01:49:14.469Z,62.34
2018-09-09T01:51:43.145Z,63.44
2018-09-09T01:54:11.763Z,62.50
2018-09-09T01:56:40.425Z,62.85
2018-09-09T01:59:09.078Z,63.01
2018-09-09T02:01:37.759Z,61.99
2018-09-09T02:04:06.393Z,61.65
2018-09-09T02:06:35.093Z,60.87
2018-09-09T02:09:04.361Z,60.16
2018-09-09T02:11:32.990Z,61.19
2018-09-09T02:14:01.666Z,58.88
2018-09-09T02:16:30.359Z,60.21
2018-09-09T02:18:59.054Z,60.03
2018-09-09T02:21:27.724Z,59.76
2018-09-09T02:23:56.417Z,59.93
2018-09-09T02:26:25.094Z,59.96
2018-09-09T02:28:53.891Z,59.81
2018-09-09T02:31:22.525Z,59.22
2018-09-09T02:33:51.223Z,58.07
2018-09-09T02:36:19.830Z,60.06
2018-09-09T02:38:48.530Z,60.21
2018-09-09T02:41:17.212Z,59.00
2018-09-09T02:43:45.905Z,58.48
2018-09-09T02:46:14.502Z,59.20
2018-09-09T02:48:43.668Z,58.94
2018-09-09T02:51:12.284Z,59.18
2018-09-09T02:53:40.993Z,59.77
2018-09-09T02:56:11.495Z,59.52
2018-09-09T02:58:40.184Z,58.83
2018-09-09T03:01:08.877Z,58.96
2018-09-09T03:03:37.652Z,59.24
2018-09-09T03:06:06.435Z,57.89
2018-09-09T03:08:35.091Z,57.84
2018-09-09T03:11:08.949Z,56.56
2018-09-09T03:13:37.623Z,58.33
2018-09-09T03:16:06.382Z,58.60
2018-09-09T03:18:35.038Z,58.26
2018-09-09T03:21:03.845Z,58.60
2018-09-09T03:23:32.550Z,59.17
2018-09-09T03:26:01.842Z,58.77
2018-09-09T03:28:31.133Z,58.80
2018-09-09T03:30:59.797Z,58.73
2018-09-09T03:33:28.475Z,59.06
2018-09-09T03:35:57.073Z,59.11
2018-09-09T03:38:25.718Z,57.26
2018-09-09T03:40:54.365Z,59.03
2018-09-09T03:43:23.110Z,57.48
2018-09-09T03:45:51.796Z,59.36
2018-09-09T03:48:20.444Z,58.80
2018-09-09T03:50:49.122Z,58.42
2018-09-09T03:53:17.764Z,58.42
2018-09-09T03:55:46.458Z,59.11
2018-09-09T03:58:16.074Z,58.87
2018-09-09T04:00:44.773Z,58.38
2018-09-09T04:03:13.411Z,58.68
2018-09-09T04:05:42.080Z,59.14
2018-09-09T04:08:10.709Z,58.49
2018-09-09T04:10:39.414Z,58.15
2018-09-09T04:13:08.074Z,57.34
2018-09-09T04:15:36.652Z,58.66
2018-09-09T04:18:05.474Z,58.80
2018-09-09T04:20:34.109Z,57.86
2018-09-09T04:23:02.790Z,57.88
2018-09-09T04:25:31.495Z,58.22
2018-09-09T04:28:00.119Z,57.93
2018-09-09T04:30:28.923Z,59.07
2018-09-09T04:32:57.610Z,58.81
2018-09-09T04:35:26.310Z,59.87
2018-09-09T04:37:54.951Z,60.60
2018-09-09T04:40:23.605Z,60.18
2018-09-09T04:42:52.268Z,59.77
2018-09-09T04:45:20.891Z,59.00
2018-09-09T04:47:49.538Z,59.43
2018-09-09T04:50:18.230Z,58.59
2018-09-09T04:52:46.849Z,59.39
2018-09-09T04:55:16.069Z,59.49
2018-09-09T04:57:44.758Z,58.99
2018-09-09T05:00:13.489Z,58.30
2018-09-09T05:02:42.125Z,58.79
2018-09-09T05:05:10.813Z,58.93
2018-09-09T05:07:39.542Z,60.09
2018-09-09T05:10:08.283Z,59.01
2018-09-09T05:12:36.908Z,59.73
2018-09-09T05:15:05.802Z,58.30
2018-09-09T05:17:34.730Z,59.37
2018-09-09T05:20:03.533Z,59.76
2018-09-09T05:22:32.257Z,59.43
2018-09-09T05:25:00.903Z,59.79
2018-09-09T05:27:29.657Z,59.54
2018-09-09T05:29:58.378Z,58.39
2018-09-09T05:32:27.093Z,59.05
2018-09-09T05:34:55.752Z,58.94
2018-09-09T05:37:24.429Z,58.47
2018-09-09T05:39:53.032Z,59.24
2018-09-09T05:42:21.745Z,58.86
2018-09-09T05:44:50.468Z,58.92
2018-09-09T05:47:19.117Z,58.39
2018-09-09T05:49:47.724Z,59.48
2018-09-09T05:52:16.465Z,58.83
2018-09-09T05:54:45.158Z,58.23
2018-09-09T05:57:13.868Z,58.81
2018-09-09T05:59:42.548Z,58.31
2018-09-09T06:02:11.289Z,57.98
2018-09-09T06:04:39.957Z,59.19
2018-09-09T06:07:08.768Z,58.91
2018-09-09T06:09:37.484Z,59.32
2018-09-09T06:12:06.207Z,59.05
2018-09-09T06:14:34.948Z,57.56
2018-09-09T06:17:03.638Z,57.39
2018-09-09T06:19:32.254Z,57.96
2018-09-09T06:22:00.928Z,57.54
2018-09-09T06:24:29.680Z,58.60
2018-09-09T06:26:58.483Z,58.40
2018-09-09T06:29:27.133Z,57.76
2018-09-09T06:31:55.827Z,58.09
2018-09-09T06:34:24.525Z,58.01
2018-09-09T06:36:53.196Z,56.95
2018-09-09T06:39:21.831Z,57.00
2018-09-09T06:41:50.547Z,56.74
2018-09-09T06:44:19.220Z,57.31
2018-09-09T06:46:47.888Z,56.66
2018-09-09T06:49:16.543Z,57.36
2018-09-09T06:51:45.208Z,57.41
2018-09-09T06:54:13.842Z,57.26
2018-09-09T06:56:42.517Z,57.18
2018-09-09T06:59:11.071Z,55.65
2018-09-09T07:01:39.628Z,56.69
2018-09-09T07:04:08.288Z,56.72
2018-09-09T07:06:36.878Z,56.31
2018-09-09T07:09:06.865Z,57.27
2018-09-09T07:11:35.584Z,57.05
2018-09-09T07:14:04.255Z,55.37
2018-09-09T07:16:33.029Z,56.45
2018-09-09T07:19:01.987Z,55.83
2018-09-09T07:21:30.692Z,55.97
2018-09-09T07:23:59.404Z,55.98
2018-09-09T07:26:28.477Z,54.88
2018-09-09T07:28:57.335Z,54.84
2018-09-09T07:31:26.001Z,55.94
2018-09-09T07:33:54.626Z,55.58
2018-09-09T07:36:23.633Z,54.25
2018-09-09T07:38:52.233Z,54.22
2018-09-09T07:41:20.846Z,53.56
2018-09-09T07:43:49.435Z,53.26
2018-09-09T07:46:18.082Z,54.40
2018-09-09T07:48:46.693Z,54.58
2018-09-09T07:51:15.276Z,52.81
2018-09-09T07:53:43.942Z,53.19
2018-09-09T07:56:12.628Z,53.35
2018-09-09T07:58:41.283Z,53.44
2018-09-09T08:01:09.924Z,53.68
2018-09-09T08:03:38.525Z,52.77
2018-09-09T08:06:07.318Z,52.77
2018-09-09T08:08:35.960Z,53.01
2018-09-09T08:11:04.509Z,52.21
2018-09-09T08:13:33.146Z,52.86
2018-09-09T08:16:01.791Z,53.52
2018-09-09T08:18:30.489Z,52.34
2018-09-09T08:20:59.051Z,51.53
2018-09-09T08:23:27.877Z,51.03
2018-09-09T08:25:56.537Z,50.48
2018-09-09T08:28:25.669Z,50.49
2018-09-09T08:30:54.387Z,51.47
2018-09-09T08:33:23.067Z,49.94
2018-09-09T08:35:51.775Z,49.43
2018-09-09T08:38:20.474Z,49.68
2018-09-09T08:40:49.127Z,49.06
2018-09-09T08:43:17.838Z,48.77
2018-09-09T08:45:46.668Z,49.08
2018-09-09T08:48:15.302Z,49.68
2018-09-09T08:50:43.958Z,50.70
2018-09-09T08:53:12.678Z,49.56
2018-09-09T08:55:41.319Z,49.18
2018-09-09T08:58:09.991Z,49.46
2018-09-09T09:00:38.705Z,49.28
2018-09-09T09:03:07.491Z,49.28
2018-09-09T09:05:36.222Z,48.73
2018-09-09T09:08:05.017Z,49.15
2018-09-09T09:10:33.648Z,47.94
2018-09-09T09:13:02.338Z,49.03
2018-09-09T09:15:31.028Z,47.98
2018-09-09T09:17:59.753Z,47.24
2018-09-09T09:20:28.647Z,47.58
2018-09-09T09:22:57.402Z,45.98
2018-09-09T09:25:26.053Z,44.76
2018-09-09T09:27:54.748Z,44.88
2018-09-09T09:30:23.497Z,45.89
2018-09-09T09:32:52.233Z,44.58
2018-09-09T09:35:21.974Z,45.37
2018-09-09T09:37:50.634Z,44.46
2018-09-09T09:40:19.540Z,45.70
2018-09-09T09:42:49.284Z,45.92
2018-09-09T09:45:18.768Z,44.84
2018-09-09T09:47:47.529Z,45.46
2018-09-09T09:50:17.048Z,44.54
2018-09-09T09:52:47.092Z,45.51
2018-09-09T09:55:16.033Z,45.03
2018-09-09T09:57:44.867Z,43.04
2018-09-09T10:00:18.792Z,42.61
2018-09-09T10:02:48.272Z,42.31
2018-09-09T10:05:16.929Z,43.50
2018-09-09T10:07:45.648Z,43.20
2018-09-09T10:10:14.722Z,41.98
2018-09-09T10:12:43.622Z,41.05
2018-09-09T10:15:12.619Z,42.00
2018-09-09T10:17:41.525Z,41.57
2018-09-09T10:20:10.317Z,41.40
2018-09-09T10:22:39.165Z,41.39
2018-09-09T10:25:07.952Z,40.74
2018-09-09T10:27:36.807Z,41.45
2018-09-09T10:30:05.810Z,41.93
2018-09-09T10:32:35.268Z,41.50
2018-09-09T10:35:04.137Z,41.33
2018-09-09T10:37:33.212Z,39.97
2018-09-09T10:40:02.173Z,40.46
2018-09-09T10:42:31.078Z,40.97
2018-09-09T10:44:59.894Z,41.20
2018-09-09T10:47:28.853Z,41.43
2018-09-09T10:49:57.916Z,40.75
2018-09-09T10:52:26.665Z,40.84
2018-09-09T10:54:55.564Z,41.32
2018-09-09T10:57:24.363Z,41.21
2018-09-09T10:59:53.259Z,41.80
2018-09-09T11:02:22.084Z,41.89
2018-09-09T11:04:51.500Z,41.95
2018-09-09T11:07:20.572Z,41.16
2018-09-09T11:09:49.335Z,41.60
2018-09-09T11:12:18.820Z,40.97
2018-09-09T11:14:47.574Z,40.94
2018-09-09T11:17:17.254Z,40.34
2018-09-09T11:19:46.175Z,40.60
2018-09-09T11:22:15.743Z,41.00
2018-09-09T11:24:44.727Z,40.17
2018-09-09T11:27:13.476Z,39.79
2018-09-09T11:29:42.424Z,40.53
2018-09-09T11:32:11.388Z,40.12
2018-09-09T11:34:40.644Z,40.74
2018-09-09T11:37:12.518Z,40.14
2018-09-09T11:39:41.885Z,39.97
2018-09-09T11:42:11.442Z,39.25
2018-09-09T11:44:40.154Z,39.58
2018-09-09T11:47:08.918Z,38.90
2018-09-09T11:49:37.774Z,40.64
2018-09-09T11:52:06.514Z,39.47
2018-09-09T11:54:35.689Z,39.64
2018-09-09T11:57:05.075Z,39.28
2018-09-09T11:59:33.991Z,39.43
2018-09-09T12:02:03.101Z,38.54
2018-09-09T12:04:32.469Z,38.86
2018-09-09T12:07:01.658Z,38.22
2018-09-09T12:09:30.673Z,39.51
2018-09-09T12:12:00.162Z,39.11
2018-09-09T12:14:29.047Z,38.18
2018-09-09T12:16:57.883Z,37.30
2018-09-09T12:19:26.797Z,38.83
2018-09-09T12:21:55.786Z,39.08
2018-09-09T12:24:24.659Z,38.85
2018-09-09T12:26:53.637Z,40.09
2018-09-09T12:29:23.473Z,39.86
2018-09-09T12:31:52.222Z,38.93
2018-09-09T12:34:21.687Z,39.19
2018-09-09T12:36:50.524Z,39.03
2018-09-09T12:39:19.269Z,38.55
2018-09-09T12:41:48.169Z,38.59
2018-09-09T12:44:22.047Z,37.69
2018-09-09T12:46:55.913Z,37.80
2018-09-09T12:49:24.533Z,38.16
2018-09-09T12:51:53.313Z,37.97
2018-09-09T12:54:21.944Z,37.53
2018-09-09T12:56:50.637Z,39.07
2018-09-09T12:59:19.508Z,37.93
2018-09-09T13:01:48.380Z,37.57
2018-09-09T13:04:17.014Z,37.64
2018-09-09T13:06:45.748Z,37.69
2018-09-09T13:09:14.441Z,38.01
2018-09-09T13:11:43.167Z,38.23
2018-09-09T13:14:11.868Z,37.43
2018-09-09T13:16:40.604Z,37.84
2018-09-09T13:19:09.472Z,38.39
2018-09-09T13:21:38.238Z,38.22
2018-09-09T13:24:06.904Z,37.66
2018-09-09T13:26:35.578Z,38.01
2018-09-09T13:29:04.324Z,37.47
2018-09-09T13:31:33.110Z,37.70
2018-09-09T13:34:01.832Z,37.76
2018-09-09T13:36:30.532Z,37.57
2018-09-09T13:38:59.286Z,37.07
2018-09-09T13:41:28.049Z,38.30
2018-09-09T13:43:56.788Z,37.98
2018-09-09T13:46:25.482Z,37.16
2018-09-09T13:48:54.260Z,37.07
2018-09-09T13:51:22.926Z,37.76
2018-09-09T13:53:51.599Z,38.06
2018-09-09T13:56:20.339Z,38.04
2018-09-09T13:58:49.134Z,38.94
2018-09-09T14:01:17.832Z,39.06
2018-09-09T14:03:46.540Z,39.32
2018-09-09T14:06:15.236Z,38.82
2018-09-09T14:08:43.949Z,39.41
2018-09-09T14:11:12.729Z,38.98
2018-09-09T14:13:41.374Z,40.52
2018-09-09T14:16:10.142Z,38.62
2018-09-09T14:18:38.817Z,38.68
2018-09-09T14:21:07.763Z,40.01
2018-09-09T14:23:36.521Z,39.55
2018-09-09T14:26:05.207Z,39.46
2018-09-09T14:28:33.864Z,39.27
2018-09-09T14:31:02.778Z,39.77
2018-09-09T14:33:31.452Z,39.39
2018-09-09T14:36:00.142Z,39.71
2018-09-09T14:38:28.800Z,39.56
2018-09-09T14:40:57.497Z,39.69
2018-09-09T14:43:26.137Z,40.59
2018-09-09T14:45:54.833Z,40.02
2018-09-09T14:48:23.519Z,41.77
2018-09-09T14:50:52.212Z,41.21
2018-09-09T14:53:21.062Z,39.41
2018-09-09T14:55:50.034Z,40.01
2018-09-09T14:58:18.725Z,40.33
2018-09-09T15:00:47.407Z,41.35
2018-09-09T15:03:16.155Z,40.04
2018-09-09T15:05:44.892Z,40.00
2018-09-09T15:08:13.651Z,41.23
2018-09-09T15:10:42.318Z,40.18
2018-09-09T15:13:11.039Z,40.04
2018-09-09T15:15:39.717Z,40.69
2018-09-09T15:18:08.456Z,40.95
2018-09-09T15:20:37.092Z,40.40
2018-09-09T15:23:05.873Z,39.38
2018-09-09T15:25:34.538Z,40.15
2018-09-09T15:28:03.236Z,39.04
2018-09-09T15:30:31.944Z,38.96
2018-09-09T15:33:00.646Z,39.76
2018-09-09T15:35:29.362Z,39.60
2018-09-09T15:37:58.017Z,38.58
2018-09-09T15:40:26.778Z,40.16
2018-09-09T15:42:55.528Z,39.13
2018-09-09T15:45:24.261Z,38.36
2018-09-09T15:47:52.990Z,39.11
2018-09-09T15:50:21.763Z,38.49
2018-09-09T15:52:50.723Z,38.31
2018-09-09T15:55:19.433Z,38.17
2018-09-09T15:57:48.089Z,37.82
2018-09-09T16:00:16.894Z,37.51
2018-09-09T16:02:45.588Z,38.07
2018-09-09T16:05:14.286Z,37.63
2018-09-09T16:07:43.002Z,37.65
2018-09-09T16:10:11.739Z,37.02
2018-09-09T16:12:40.505Z,37.44
2018-09-09T16:15:09.143Z,37.34
2018-09-09T16:17:37.793Z,38.17
2018-09-09T16:20:07.422Z,37.44
2018-09-09T16:22:36.113Z,38.35
2018-09-09T16:25:04.884Z,38.62
2018-09-09T16:27:33.593Z,37.92
2018-09-09T16:30:02.336Z,38.26
2018-09-09T16:32:31.031Z,38.72
2018-09-09T16:34:59.700Z,39.32
2018-09-09T16:37:28.391Z,38.52
2018-09-09T16:39:57.060Z,39.30
2018-09-09T16:42:25.821Z,39.36
2018-09-09T16:44:54.564Z,40.25
2018-09-09T16:47:23.217Z,39.05
2018-09-09T16:49:51.944Z,39.87
2018-09-09T16:52:21.310Z,41.07
2018-09-09T16:54:50.018Z,41.80
2018-09-09T16:57:18.744Z,42.60
2018-09-09T16:59:47.459Z,44.39
2018-09-09T17:02:16.220Z,45.00
2018-09-09T17:04:45.017Z,44.63
2018-09-09T17:07:13.855Z,45.85
2018-09-09T17:09:42.615Z,44.76
2018-09-09T17:12:11.317Z,44.60
2018-09-09T17:14:40.048Z,45.55
2018-09-09T17:17:08.784Z,45.83
2018-09-09T17:19:37.472Z,46.76
2018-09-09T17:22:06.311Z,48.49
2018-09-09T17:24:34.991Z,48.38
2018-09-09T17:27:03.694Z,48.85
2018-09-09T17:29:32.438Z,48.95
2018-09-09T17:32:01.147Z,49.62
2018-09-09T17:34:29.892Z,49.92
2018-09-09T17:36:58.596Z,51.45
2018-09-09T17:39:27.303Z,51.02
2018-09-09T17:41:56.090Z,51.73
2018-09-09T17:44:24.874Z,51.23
2018-09-09T17:46:53.601Z,51.75
2018-09-09T17:49:22.430Z,51.11
2018-09-09T17:51:51.100Z,52.00
2018-09-09T17:54:19.811Z,52.47
2018-09-09T17:56:48.501Z,52.73
2018-09-09T17:59:17.322Z,52.22
2018-09-09T18:01:46.098Z,52.57
2018-09-09T18:04:14.912Z,52.92
2018-09-09T18:06:43.588Z,53.88
2018-09-09T18:09:12.252Z,54.39
2018-09-09T18:11:41.039Z,54.41
2018-09-09T18:14:09.647Z,55.01
2018-09-09T18:16:38.252Z,54.18
2018-09-09T18:19:06.998Z,54.94
2018-09-09T18:21:35.751Z,53.71
2018-09-09T18:24:04.447Z,54.28
2018-09-09T18:26:33.771Z,54.65
2018-09-09T18:29:02.645Z,55.29
2018-09-09T18:31:31.351Z,55.30
2018-09-09T18:34:00.082Z,54.76
2018-09-09T18:36:28.859Z,55.02
2018-09-09T18:38:57.632Z,56.20
2018-09-09T18:41:26.336Z,56.39
2018-09-09T18:43:55.316Z,56.21
2018-09-09T18:46:23.976Z,56.31
2018-09-09T18:48:52.948Z,57.53
2018-09-09T18:51:21.662Z,57.11
2018-09-09T18:53:50.301Z,55.90
2018-09-09T18:56:18.989Z,56.47
2018-09-09T18:58:47.707Z,57.06
2018-09-09T19:01:16.343Z,57.11
2018-09-09T19:03:45.007Z,56.66
2018-09-09T19:06:13.774Z,57.79
2018-09-09T19:08:42.424Z,57.08
2018-09-09T19:11:11.121Z,57.24
2018-09-09T19:13:39.858Z,58.18
2018-09-09T19:16:08.682Z,58.52
2018-09-09T19:18:37.363Z,58.57
2018-09-09T19:21:06.063Z,58.00
2018-09-09T19:23:34.771Z,58.53
2018-09-09T19:26:03.497Z,59.33
2018-09-09T19:28:32.222Z,58.55
2018-09-09T19:31:00.958Z,58.75
2018-09-09T19:33:29.725Z,58.86
2018-09-09T19:35:58.411Z,59.29
2018-09-09T19:38:27.176Z,60.03
2018-09-09T19:40:55.932Z,59.65
2018-09-09T19:43:24.598Z,59.21
2018-09-09T19:45:53.865Z,59.30
2018-09-09T19:48:22.581Z,59.97
2018-09-09T19:50:51.320Z,59.88
2018-09-09T19:53:20.087Z,60.79
2018-09-09T19:55:48.782Z,60.15
2018-09-09T19:58:17.529Z,60.11
2018-09-09T20:00:46.256Z,59.97
2018-09-09T20:03:15.011Z,60.09
2018-09-09T20:05:43.690Z,60.00
2018-09-09T20:08:12.467Z,60.28
2018-09-09T20:10:41.163Z,59.82
2018-09-09T20:13:09.806Z,60.21
2018-09-09T20:15:38.450Z,60.62
2018-09-09T20:18:07.546Z,61.25
2018-09-09T20:20:36.279Z,60.60
2018-09-09T20:23:04.938Z,60.63
2018-09-09T20:25:33.563Z,60.44
2018-09-09T20:28:02.227Z,60.80
2018-09-09T20:30:30.971Z,60.88
2018-09-09T20:32:59.640Z,61.19
2018-09-09T20:35:28.336Z,60.95
2018-09-09T20:37:57.008Z,60.82
2018-09-09T20:40:25.847Z,61.06
2018-09-09T20:42:54.561Z,61.47
2018-09-09T20:45:23.765Z,61.37
2018-09-09T20:47:52.462Z,61.16
2018-09-09T20:50:21.166Z,60.54
2018-09-09T20:52:49.809Z,61.43
2018-09-09T20:55:18.707Z,61.98
2018-09-09T20:57:47.357Z,61.61
2018-09-09T21:00:16.013Z,61.80
2018-09-09T21:02:44.725Z,61.34
2018-09-09T21:05:13.378Z,61.72
2018-09-09T21:07:42.047Z,61.67
2018-09-09T21:10:10.781Z,61.71
2018-09-09T21:12:39.476Z,62.07
2018-09-09T21:15:08.474Z,61.77
2018-09-09T21:17:37.155Z,63.00
2018-09-09T21:20:05.922Z,61.59
2018-09-09T21:22:34.624Z,62.27
2018-09-09T21:25:03.401Z,61.83
2018-09-09T21:27:32.122Z,62.63
2018-09-09T21:30:01.405Z,62.93
2018-09-09T21:32:30.155Z,62.35
2018-09-09T21:34:58.893Z,62.58
2018-09-09T21:37:27.547Z,63.32
2018-09-09T21:39:56.198Z,62.97
2018-09-09T21:42:25.217Z,62.64
2018-09-09T21:44:53.895Z,62.59
2018-09-09T21:47:22.567Z,62.78
2018-09-09T21:49:51.206Z,63.13
2018-09-09T21:52:19.935Z,62.91
2018-09-09T21:54:48.691Z,62.60
2018-09-09T21:57:17.341Z,61.47
2018-09-09T21:59:45.986Z,62.53
2018-09-09T22:02:15.000Z,62.29
2018-09-09T22:04:43.687Z,62.59
2018-09-09T22:07:13.636Z,62.41
2018-09-09T22:09:43.690Z,62.47
2018-09-09T22:12:13.252Z,61.93
2018-09-09T22:14:42.677Z,62.08
2018-09-09T22:17:11.812Z,61.95
2018-09-09T22:19:40.740Z,61.99
2018-09-09T22:22:10.429Z,61.81
2018-09-09T22:24:39.120Z,62.30
2018-09-09T22:27:07.965Z,62.74
2018-09-09T22:29:36.741Z,62.06
2018-09-09T22:32:05.434Z,62.15
2018-09-09T22:34:34.375Z,62.76
2018-09-09T22:37:03.039Z,61.63
2018-09-09T22:39:31.733Z,62.16
2018-09-09T22:42:00.474Z,62.26
2018-09-09T22:44:29.166Z,62.70
2018-09-09T22:46:57.809Z,62.60
2018-09-09T22:49:26.669Z,62.66
2018-09-09T22:51:55.997Z,62.42
2018-09-09T22:54:24.699Z,62.87
2018-09-09T22:56:53.466Z,63.46
2018-09-09T22:59:22.190Z,63.38
2018-09-09T23:01:50.908Z,64.37
2018-09-09T23:04:19.631Z,62.66
2018-09-09T23:06:48.334Z,63.88
2018-09-09T23:09:17.005Z,63.11
2018-09-09T23:11:45.680Z,63.14
2018-09-09T23:14:14.481Z,63.21
2018-09-09T23:16:43.196Z,63.73
2018-09-09T23:19:11.890Z,63.90
2018-09-09T23:21:40.556Z,64.24
2018-09-09T23:24:09.221Z,64.33
2018-09-09T23:26:38.001Z,62.96
2018-09-09T23:29:06.765Z,63.94
2018-09-09T23:31:35.456Z,64.11
2018-09-09T23:34:04.224Z,63.96
2018-09-09T23:36:32.865Z,64.34
2018-09-09T23:39:01.610Z,64.00
2018-09-09T23:41:30.597Z,63.76
2018-09-09T23:43:59.359Z,63.91
2018-09-09T23:46:28.066Z,63.52
2018-09-09T23:48:56.886Z,63.50
2018-09-09T23:51:25.644Z,63.39
2018-09-09T23:53:54.302Z,63.78
2018-09-09T23:56:23.065Z,63.42
2018-09-09T23:58:51.811Z,63.58
